createdAt,value
2019-02-14T00:00:23.621Z,4.90
2019-02-14T00:02:52.385Z,4.80
2019-02-14T00:05:21.185Z,4.80
2019-02-14T00:07:49.630Z,4.80
2019-02-14T00:10:18.450Z,4.80
2019-02-14T00:12:47.120Z,4.80
2019-02-14T00:15:15.630Z,4.90
2019-02-14T00:17:44.081Z,4.90
2019-02-14T00:20:12.546Z,4.90
2019-02-14T00:22:40.994Z,4.90
2019-02-14T00:25:10.977Z,4.80
2019-02-14T00:27:39.436Z,4.80
2019-02-14T00:30:09.965Z,4.80
2019-02-14T00:32:38.778Z,4.80
2019-02-14T00:35:07.654Z,4.70
2019-02-14T00:37:36.243Z,4.80
2019-02-14T00:40:07.393Z,4.70
2019-02-14T00:42:35.853Z,4.70
2019-02-14T00:45:05.655Z,4.60
2019-02-14T00:47:34.099Z,4.60
2019-02-14T00:50:02.570Z,4.60
2019-02-14T00:52:31.020Z,4.60
2019-02-14T00:54:59.815Z,4.60
2019-02-14T00:57:28.286Z,4.70
2019-02-14T00:59:56.727Z,4.60
2019-02-14T01:02:25.169Z,4.60
2019-02-14T01:04:53.892Z,4.60
2019-02-14T01:07:22.333Z,4.50
2019-02-14T01:09:51.111Z,4.60
2019-02-14T01:12:19.556Z,4.60
2019-02-14T01:14:48.078Z,4.60
2019-02-14T01:17:16.554Z,4.60
2019-02-14T01:19:45.093Z,4.60
2019-02-14T01:22:13.538Z,4.60
2019-02-14T01:24:41.976Z,4.60
2019-02-14T01:27:10.443Z,4.60
2019-02-14T01:29:38.889Z,4.70
2019-02-14T01:32:07.499Z,4.60
2019-02-14T01:34:35.960Z,4.60
2019-02-14T01:37:04.714Z,4.50
2019-02-14T01:39:33.156Z,4.50
2019-02-14T01:42:01.978Z,4.50
2019-02-14T01:44:30.416Z,4.50
2019-02-14T01:46:58.871Z,4.50
2019-02-14T01:49:27.421Z,4.40
2019-02-14T01:51:55.869Z,4.50
2019-02-14T01:54:24.309Z,4.50
2019-02-14T01:56:52.776Z,4.50
2019-02-14T01:59:21.242Z,4.50
2019-02-14T02:01:49.755Z,4.50
2019-02-14T02:04:18.513Z,4.50
2019-02-14T02:06:46.990Z,4.50
2019-02-14T02:09:15.798Z,4.50
2019-02-14T02:11:44.344Z,4.50
2019-02-14T02:14:13.162Z,4.50
2019-02-14T02:16:41.601Z,4.60
2019-02-14T02:19:10.143Z,4.60
2019-02-14T02:21:38.582Z,4.50
2019-02-14T02:24:07.030Z,4.40
2019-02-14T02:26:35.490Z,4.40
2019-02-14T02:29:04.556Z,4.40
2019-02-14T02:31:33.462Z,4.50
2019-02-14T02:34:01.927Z,4.40
2019-02-14T02:36:30.447Z,4.40
2019-02-14T02:38:58.906Z,4.40
2019-02-14T02:41:27.361Z,4.40
2019-02-14T02:43:55.902Z,4.40
2019-02-14T02:46:24.336Z,4.30
2019-02-14T02:48:53.139Z,4.30
2019-02-14T02:51:21.591Z,4.20
2019-02-14T02:53:50.139Z,4.30
2019-02-14T02:56:18.583Z,4.40
2019-02-14T02:58:47.027Z,4.40
2019-02-14T03:01:15.497Z,4.40
2019-02-14T03:03:43.934Z,4.40
2019-02-14T03:06:12.454Z,4.40
2019-02-14T03:08:40.915Z,4.30
2019-02-14T03:11:09.369Z,4.30
2019-02-14T03:13:37.878Z,4.40
2019-02-14T03:16:06.748Z,4.40
2019-02-14T03:18:35.603Z,4.40
2019-02-14T03:21:04.139Z,4.40
2019-02-14T03:23:32.873Z,4.40
2019-02-14T03:26:01.337Z,4.40
2019-02-14T03:28:29.779Z,4.40
2019-02-14T03:30:58.631Z,4.30
2019-02-14T03:33:27.093Z,4.30
2019-02-14T03:35:55.541Z,4.30
2019-02-14T03:38:24.009Z,4.30
2019-02-14T03:40:52.749Z,4.10
2019-02-14T03:43:21.199Z,4.10
2019-02-14T03:45:50.050Z,4.00
2019-02-14T03:48:18.493Z,4.00
2019-02-14T03:50:46.933Z,4.10
2019-02-14T03:53:15.441Z,4.00
2019-02-14T03:55:43.928Z,4.00
2019-02-14T03:58:12.365Z,4.10
2019-02-14T04:00:40.819Z,4.10
2019-02-14T04:03:09.273Z,4.10
2019-02-14T04:05:38.099Z,4.10
2019-02-14T04:08:06.882Z,4.10
2019-02-14T04:10:35.331Z,4.00
2019-02-14T04:13:04.141Z,4.10
2019-02-14T04:15:32.872Z,4.00
2019-02-14T04:18:01.321Z,4.10
2019-02-14T04:20:30.096Z,4.00
2019-02-14T04:22:58.902Z,4.10
2019-02-14T04:25:27.341Z,4.10
2019-02-14T04:27:55.795Z,4.10
2019-02-14T04:30:24.634Z,4.10
2019-02-14T04:32:53.438Z,4.10
2019-02-14T04:35:21.882Z,4.10
2019-02-14T04:37:50.352Z,4.00
2019-02-14T04:40:18.870Z,4.00
2019-02-14T04:42:47.347Z,4.00
2019-02-14T04:45:15.921Z,4.00
2019-02-14T04:47:44.375Z,4.00
2019-02-14T04:50:13.101Z,4.00
2019-02-14T04:52:41.542Z,4.00
2019-02-14T04:55:11.164Z,4.00
2019-02-14T04:57:39.981Z,4.00
2019-02-14T05:00:13.321Z,4.00
2019-02-14T05:02:41.850Z,4.00
2019-02-14T05:05:10.734Z,3.90
2019-02-14T05:07:39.272Z,3.80
2019-02-14T05:10:11.906Z,3.90
2019-02-14T05:12:40.790Z,3.90
2019-02-14T05:15:10.482Z,3.90
2019-02-14T05:17:38.939Z,3.80
2019-02-14T05:20:11.665Z,3.80
2019-02-14T05:22:40.174Z,3.80
2019-02-14T05:25:09.768Z,3.90
2019-02-14T05:27:38.537Z,3.90
2019-02-14T05:30:13.191Z,3.80
2019-02-14T05:32:41.725Z,3.90
2019-02-14T05:35:10.503Z,3.80
2019-02-14T05:37:38.962Z,3.90
2019-02-14T05:40:09.942Z,3.90
2019-02-14T05:42:38.754Z,3.90
2019-02-14T05:45:12.375Z,3.90
2019-02-14T05:47:41.132Z,3.90
2019-02-14T05:50:14.630Z,3.90
2019-02-14T05:52:43.110Z,3.80
2019-02-14T05:55:12.435Z,3.80
2019-02-14T05:57:40.907Z,3.80
2019-02-14T06:00:17.553Z,3.70
2019-02-14T06:02:46.017Z,3.70
2019-02-14T06:05:14.463Z,3.80
2019-02-14T06:07:43.213Z,3.80
2019-02-14T06:10:12.109Z,3.90
2019-02-14T06:12:40.557Z,3.80
2019-02-14T06:15:11.035Z,3.90
2019-02-14T06:17:39.815Z,3.80
2019-02-14T06:20:10.463Z,3.80
2019-02-14T06:22:38.927Z,3.80
2019-02-14T06:25:09.878Z,3.80
2019-02-14T06:27:38.323Z,3.70
2019-02-14T06:30:09.913Z,3.70
2019-02-14T06:32:38.370Z,3.80
2019-02-14T06:35:08.465Z,3.80
2019-02-14T06:37:36.906Z,3.70
2019-02-14T06:40:08.514Z,3.70
2019-02-14T06:42:37.023Z,3.70
2019-02-14T06:45:15.098Z,3.80
2019-02-14T06:47:43.533Z,3.80
2019-02-14T06:50:12.112Z,3.80
2019-02-14T06:52:40.581Z,3.80
2019-02-14T06:55:09.624Z,3.80
2019-02-14T06:57:38.071Z,3.80
2019-02-14T07:00:14.781Z,3.90
2019-02-14T07:02:43.367Z,3.90
2019-02-14T07:05:12.208Z,3.90
2019-02-14T07:07:40.925Z,3.90
2019-02-14T07:10:10.908Z,3.90
2019-02-14T07:12:39.453Z,3.80
2019-02-14T07:15:11.111Z,3.90
2019-02-14T07:17:39.626Z,3.90
2019-02-14T07:20:10.888Z,4.00
2019-02-14T07:22:39.740Z,4.00
2019-02-14T07:25:10.489Z,4.00
2019-02-14T07:27:38.936Z,4.00
2019-02-14T07:30:16.028Z,4.00
2019-02-14T07:32:44.506Z,4.00
2019-02-14T07:35:13.015Z,4.00
2019-02-14T07:37:41.462Z,4.10
2019-02-14T07:40:12.529Z,4.10
2019-02-14T07:42:41.053Z,4.20
2019-02-14T07:45:11.934Z,4.10
2019-02-14T07:47:40.408Z,4.20
2019-02-14T07:50:11.053Z,4.10
2019-02-14T07:52:39.533Z,4.10
2019-02-14T07:55:11.089Z,4.10
2019-02-14T07:57:39.598Z,4.00
2019-02-14T08:00:13.455Z,4.00
2019-02-14T08:02:41.926Z,4.10
2019-02-14T08:05:11.305Z,4.10
2019-02-14T08:07:39.758Z,4.10
2019-02-14T08:10:14.467Z,4.20
2019-02-14T08:12:43.002Z,4.20
2019-02-14T08:15:13.184Z,4.30
2019-02-14T08:17:41.790Z,4.40
2019-02-14T08:20:18.493Z,4.50
2019-02-14T08:22:46.969Z,4.70
2019-02-14T08:25:15.487Z,4.80
2019-02-14T08:27:44.395Z,4.90
2019-02-14T08:30:20.283Z,5.00
2019-02-14T08:32:48.999Z,5.10
2019-02-14T08:35:17.812Z,5.20
2019-02-14T08:37:46.375Z,5.40
2019-02-14T08:40:24.044Z,5.50
2019-02-14T08:42:52.501Z,5.60
2019-02-14T08:45:21.063Z,5.70
2019-02-14T08:47:49.497Z,5.70
2019-02-14T08:50:18.324Z,5.80
2019-02-14T08:52:46.763Z,5.90
2019-02-14T08:55:15.221Z,6.00
2019-02-14T08:57:43.660Z,6.10
2019-02-14T09:00:16.587Z,6.20
2019-02-14T09:02:45.057Z,6.30
2019-02-14T09:05:13.832Z,6.40
2019-02-14T09:07:42.282Z,6.40
2019-02-14T09:10:15.887Z,6.50
2019-02-14T09:12:44.350Z,6.60
2019-02-14T09:15:14.279Z,6.60
2019-02-14T09:17:42.820Z,6.60
2019-02-14T09:20:21.726Z,6.70
2019-02-14T09:22:50.207Z,6.80
2019-02-14T09:25:18.696Z,6.90
2019-02-14T09:27:47.454Z,7.00
2019-02-14T09:30:16.055Z,7.00
2019-02-14T09:32:44.589Z,7.20
2019-02-14T09:35:13.110Z,7.30
2019-02-14T09:37:41.887Z,7.40
2019-02-14T09:40:15.934Z,7.50
2019-02-14T09:42:44.901Z,7.70
2019-02-14T09:45:14.494Z,7.70
2019-02-14T09:47:43.010Z,7.80
2019-02-14T09:50:13.316Z,7.90
2019-02-14T09:52:42.288Z,8.00
2019-02-14T09:55:14.682Z,8.10
2019-02-14T09:57:43.267Z,8.20
2019-02-14T10:00:17.295Z,8.40
2019-02-14T10:02:45.767Z,8.50
2019-02-14T10:05:15.157Z,8.60
2019-02-14T10:07:43.932Z,8.70
2019-02-14T10:10:15.615Z,8.80
2019-02-14T10:12:44.577Z,9.00
2019-02-14T10:15:13.483Z,9.20
2019-02-14T10:17:41.989Z,9.40
2019-02-14T10:20:15.671Z,9.50
2019-02-14T10:22:44.118Z,9.60
2019-02-14T10:25:13.594Z,9.70
2019-02-14T10:27:42.139Z,9.90
2019-02-14T10:30:16.975Z,10.00
2019-02-14T10:32:45.417Z,10.20
2019-02-14T10:35:13.890Z,10.40
2019-02-14T10:37:42.339Z,10.60
2019-02-14T10:40:15.484Z,10.70
2019-02-14T10:42:44.102Z,10.90
2019-02-14T10:45:17.571Z,11.10
2019-02-14T10:47:46.026Z,11.30
2019-02-14T10:50:14.521Z,11.50
2019-02-14T10:52:43.034Z,11.70
2019-02-14T10:55:13.397Z,11.80
2019-02-14T10:57:41.847Z,11.90
2019-02-14T11:00:22.190Z,12.10
2019-02-14T11:02:50.986Z,12.30
2019-02-14T11:05:19.778Z,12.50
2019-02-14T11:07:48.312Z,12.60
2019-02-14T11:10:17.362Z,12.70
2019-02-14T11:12:46.016Z,12.80
2019-02-14T11:15:20.164Z,13.00
2019-02-14T11:17:49.149Z,13.10
2019-02-14T11:20:18.192Z,13.30
2019-02-14T11:22:48.781Z,13.40
2019-02-14T11:25:31.982Z,13.50
2019-02-14T11:28:00.697Z,13.70
2019-02-14T11:30:29.238Z,13.80
2019-02-14T11:32:57.761Z,14.00
2019-02-14T11:35:26.238Z,14.00
2019-02-14T11:37:54.711Z,14.10
2019-02-14T11:40:23.161Z,14.20
2019-02-14T11:42:51.647Z,14.30
2019-02-14T11:45:25.375Z,14.40
2019-02-14T11:47:53.855Z,14.50
2019-02-14T11:50:22.308Z,14.60
2019-02-14T11:52:50.761Z,14.70
2019-02-14T11:55:19.299Z,14.90
2019-02-14T11:57:47.746Z,14.90
2019-02-14T12:00:28.843Z,15.00
2019-02-14T12:02:57.296Z,15.20
2019-02-14T12:05:25.777Z,15.30
2019-02-14T12:07:54.224Z,15.50
2019-02-14T12:10:22.698Z,15.60
2019-02-14T12:12:51.154Z,15.70
2019-02-14T12:15:19.611Z,15.70
2019-02-14T12:17:48.172Z,15.70
2019-02-14T12:20:16.998Z,15.80
2019-02-14T12:22:46.994Z,15.90
2019-02-14T12:25:32.632Z,15.90
2019-02-14T12:28:01.385Z,16.00
2019-02-14T12:30:29.830Z,16.10
2019-02-14T12:32:58.324Z,16.10
2019-02-14T12:35:27.149Z,16.20
2019-02-14T12:37:55.647Z,16.30
2019-02-14T12:40:24.165Z,16.30
2019-02-14T12:42:53.003Z,16.40
2019-02-14T12:45:26.309Z,16.50
2019-02-14T12:47:54.902Z,16.50
2019-02-14T12:50:23.414Z,16.60
2019-02-14T12:52:51.894Z,16.60
2019-02-14T12:55:20.351Z,16.60
2019-02-14T12:57:48.793Z,16.60
2019-02-14T13:00:19.706Z,16.60
2019-02-14T13:02:48.233Z,16.60
2019-02-14T13:05:16.701Z,16.60
2019-02-14T13:07:45.153Z,16.60
2019-02-14T13:10:15.961Z,16.50
2019-02-14T13:12:44.440Z,16.50
2019-02-14T13:15:16.003Z,16.60
2019-02-14T13:17:44.443Z,16.60
2019-02-14T13:20:13.049Z,16.50
2019-02-14T13:22:41.498Z,16.40
2019-02-14T13:25:11.861Z,16.20
2019-02-14T13:27:40.382Z,16.10
2019-02-14T13:30:18.026Z,16.00
2019-02-14T13:32:46.636Z,16.00
2019-02-14T13:35:15.084Z,16.10
2019-02-14T13:37:43.529Z,16.10
2019-02-14T13:40:12.148Z,16.10
2019-02-14T13:42:40.932Z,16.10
2019-02-14T13:45:15.205Z,16.10
2019-02-14T13:47:43.683Z,16.00
2019-02-14T13:50:15.727Z,15.90
2019-02-14T13:52:43.345Z,15.70
2019-02-14T13:55:11.881Z,15.60
2019-02-14T13:57:40.927Z,15.60
2019-02-14T14:00:18.165Z,15.60
2019-02-14T14:02:47.085Z,15.40
2019-02-14T14:05:15.598Z,15.10
2019-02-14T14:07:44.073Z,15.20
2019-02-14T14:10:13.034Z,15.30
2019-02-14T14:12:42.398Z,15.40
2019-02-14T14:15:11.170Z,15.40
2019-02-14T14:17:39.686Z,15.50
2019-02-14T14:20:09.601Z,15.60
2019-02-14T14:22:38.049Z,15.60
2019-02-14T14:25:11.277Z,15.70
2019-02-14T14:27:39.777Z,15.80
2019-02-14T14:30:13.404Z,15.90
2019-02-14T14:32:41.861Z,15.80
2019-02-14T14:35:11.673Z,15.90
2019-02-14T14:37:40.462Z,16.10
2019-02-14T14:40:11.916Z,16.30
2019-02-14T14:42:51.359Z,16.50
2019-02-14T14:45:22.450Z,16.60
2019-02-14T14:47:51.301Z,16.70
2019-02-14T14:50:20.177Z,16.80
2019-02-14T14:52:48.983Z,16.90
2019-02-14T14:55:17.847Z,16.90
2019-02-14T14:57:46.294Z,16.90
2019-02-14T15:00:15.277Z,16.90
2019-02-14T15:02:43.793Z,16.80
2019-02-14T15:05:12.264Z,16.80
2019-02-14T15:07:40.795Z,16.70
2019-02-14T15:10:09.767Z,16.70
2019-02-14T15:12:38.222Z,16.60
2019-02-14T15:15:07.826Z,16.50
2019-02-14T15:17:36.370Z,16.40
2019-02-14T15:20:09.828Z,16.30
2019-02-14T15:22:38.717Z,16.20
2019-02-14T15:25:08.022Z,16.10
2019-02-14T15:27:36.477Z,16.00
2019-02-14T15:30:05.878Z,15.90
2019-02-14T15:32:34.350Z,15.80
2019-02-14T15:35:03.179Z,15.70
2019-02-14T15:37:31.661Z,15.60
2019-02-14T15:40:08.569Z,15.60
2019-02-14T15:42:30.296Z,15.50
2019-02-14T15:44:59.150Z,15.40
2019-02-14T15:47:27.609Z,15.30
2019-02-14T15:49:56.061Z,15.20
2019-02-14T15:52:24.898Z,15.10
2019-02-14T15:54:53.365Z,14.90
2019-02-14T15:57:21.818Z,14.50
2019-02-14T15:59:50.284Z,14.10
2019-02-14T16:02:18.735Z,13.70
2019-02-14T16:04:47.187Z,13.40
2019-02-14T16:07:17.573Z,13.10
2019-02-14T16:09:46.143Z,12.90
2019-02-14T16:12:14.591Z,12.60
2019-02-14T16:14:44.730Z,12.40
2019-02-14T16:17:13.803Z,12.10
2019-02-14T16:19:42.431Z,11.90
2019-02-14T16:22:10.897Z,11.70
2019-02-14T16:24:41.267Z,11.50
2019-02-14T16:27:09.913Z,11.30
2019-02-14T16:29:38.443Z,11.20
2019-02-14T16:32:06.909Z,11.10
2019-02-14T16:34:35.369Z,10.90
2019-02-14T16:37:04.611Z,10.80
2019-02-14T16:39:33.178Z,10.70
2019-02-14T16:42:01.637Z,10.60
2019-02-14T16:44:30.093Z,10.50
2019-02-14T16:46:58.860Z,10.40
2019-02-14T16:49:27.299Z,10.40
2019-02-14T16:51:55.791Z,10.40
2019-02-14T16:54:24.270Z,10.30
2019-02-14T16:56:52.712Z,10.20
2019-02-14T16:59:21.157Z,10.10
2019-02-14T17:01:49.624Z,10.10
2019-02-14T17:04:18.837Z,10.00
2019-02-14T17:06:47.727Z,9.90
2019-02-14T17:09:16.199Z,9.90
2019-02-14T17:15:26.009Z,9.90
2019-02-14T17:17:54.457Z,9.80
2019-02-14T17:20:23.354Z,9.70
2019-02-14T17:22:51.824Z,9.60
2019-02-14T17:25:20.366Z,9.60
2019-02-14T17:27:48.871Z,9.50
2019-02-14T17:30:17.363Z,9.40
2019-02-14T17:32:45.811Z,9.40
2019-02-14T17:35:14.254Z,9.30
2019-02-14T17:37:42.725Z,9.30
2019-02-14T17:40:11.276Z,9.30
2019-02-14T17:42:40.094Z,9.20
2019-02-14T17:45:09.678Z,9.20
2019-02-14T17:47:38.142Z,9.20
2019-02-14T17:50:07.925Z,9.20
2019-02-14T17:52:36.369Z,9.20
2019-02-14T17:55:07.596Z,9.10
2019-02-14T17:57:36.097Z,9.00
2019-02-14T18:00:07.818Z,9.00
2019-02-14T18:02:36.287Z,9.00
2019-02-14T18:05:06.734Z,8.90
2019-02-14T18:07:35.241Z,8.90
2019-02-14T18:10:05.367Z,8.80
2019-02-14T18:12:34.149Z,8.80
2019-02-14T18:15:02.667Z,8.80
2019-02-14T18:17:31.125Z,8.70
2019-02-14T18:19:59.575Z,8.60
2019-02-14T18:22:28.382Z,8.60
2019-02-14T18:24:56.853Z,8.60
2019-02-14T18:27:25.305Z,8.60
2019-02-14T18:29:54.135Z,8.50
2019-02-14T18:32:22.948Z,8.50
2019-02-14T18:34:51.384Z,8.50
2019-02-14T18:37:19.861Z,8.50
2019-02-14T18:39:48.306Z,8.50
2019-02-14T18:42:16.893Z,8.50
2019-02-14T18:44:47.298Z,8.50
2019-02-14T18:47:15.874Z,8.40
2019-02-14T18:49:44.413Z,8.40
2019-02-14T18:52:12.914Z,8.30
2019-02-14T18:54:41.372Z,8.30
2019-02-14T18:57:09.912Z,8.30
2019-02-14T18:59:38.434Z,8.30
2019-02-14T19:02:06.955Z,8.40
2019-02-14T19:04:35.422Z,8.40
2019-02-14T19:07:04.331Z,8.30
2019-02-14T19:09:32.771Z,8.20
2019-02-14T19:12:01.311Z,8.10
2019-02-14T19:14:29.825Z,8.00
2019-02-14T19:16:58.674Z,8.00
2019-02-14T19:19:27.441Z,8.10
2019-02-14T19:21:56.028Z,8.10
2019-02-14T19:24:24.657Z,8.10
2019-02-14T19:26:53.274Z,8.10
2019-02-14T19:29:21.791Z,8.10
2019-02-14T19:31:50.195Z,8.00
2019-02-14T19:34:18.707Z,7.80
2019-02-14T19:36:47.548Z,7.80
2019-02-14T19:39:16.490Z,7.80
2019-02-14T19:41:45.037Z,7.80
2019-02-14T19:44:13.642Z,7.80
2019-02-14T19:46:42.151Z,7.80
2019-02-14T19:49:10.592Z,7.80
2019-02-14T19:51:39.074Z,7.80
2019-02-14T19:54:07.651Z,7.70
2019-02-14T19:56:36.523Z,7.80
2019-02-14T19:59:04.994Z,7.80
2019-02-14T20:01:33.574Z,7.70
2019-02-14T20:04:02.171Z,7.70
2019-02-14T20:06:30.729Z,7.70
2019-02-14T20:08:59.620Z,7.70
2019-02-14T20:11:36.200Z,7.70
2019-02-14T20:13:58.325Z,7.70
2019-02-14T20:16:26.775Z,7.60
2019-02-14T20:18:55.625Z,7.60
2019-02-14T20:21:24.187Z,7.60
2019-02-14T20:23:52.845Z,7.70
2019-02-14T20:26:21.429Z,7.60
2019-02-14T20:28:50.040Z,7.60
2019-02-14T20:31:18.723Z,7.50
2019-02-14T20:33:48.495Z,7.50
2019-02-14T20:36:17.018Z,7.50
2019-02-14T20:38:45.475Z,7.50
2019-02-14T20:41:14.056Z,7.50
2019-02-14T20:43:42.537Z,7.50
2019-02-14T20:46:10.982Z,7.50
2019-02-14T20:48:39.649Z,7.40
2019-02-14T20:51:08.185Z,7.40
2019-02-14T20:53:36.700Z,7.30
2019-02-14T20:56:05.154Z,7.30
2019-02-14T20:58:33.834Z,7.30
2019-02-14T21:01:03.928Z,7.30
2019-02-14T21:03:32.902Z,7.30
2019-02-14T21:06:01.344Z,7.30
2019-02-14T21:08:30.257Z,7.20
2019-02-14T21:10:58.769Z,7.20
2019-02-14T21:13:27.216Z,7.20
2019-02-14T21:15:55.848Z,7.20
2019-02-14T21:18:24.628Z,7.20
2019-02-14T21:20:53.567Z,7.10
2019-02-14T21:23:22.035Z,7.10
2019-02-14T21:25:50.706Z,7.10
2019-02-14T21:28:19.208Z,7.20
2019-02-14T21:30:48.769Z,7.30
2019-02-14T21:33:17.318Z,7.30
2019-02-14T21:35:45.858Z,7.20
2019-02-14T21:38:14.674Z,7.20
2019-02-14T21:40:43.184Z,7.20
2019-02-14T21:43:11.699Z,7.10
2019-02-14T21:45:40.305Z,7.10
2019-02-14T21:48:08.848Z,7.10
2019-02-14T21:50:37.372Z,7.10
2019-02-14T21:53:06.045Z,7.00
2019-02-14T21:55:34.630Z,7.00
2019-02-14T21:58:04.896Z,7.00
2019-02-14T22:00:33.571Z,7.10
2019-02-14T22:03:02.073Z,7.20
2019-02-14T22:05:30.661Z,7.20
2019-02-14T22:07:59.431Z,7.30
2019-02-14T22:10:28.438Z,7.20
2019-02-14T22:12:56.978Z,7.20
2019-02-14T22:15:27.722Z,7.10
2019-02-14T22:17:56.264Z,7.10
2019-02-14T22:20:24.771Z,7.00
2019-02-14T22:22:53.309Z,6.90
2019-02-14T22:25:22.183Z,7.00
2019-02-14T22:27:50.788Z,7.00
2019-02-14T22:30:19.309Z,6.90
2019-02-14T22:32:47.752Z,6.80
2019-02-14T22:35:16.222Z,6.80
2019-02-14T22:37:44.747Z,6.80
2019-02-14T22:40:14.125Z,6.70
2019-02-14T22:42:47.345Z,6.70
2019-02-14T22:45:14.174Z,6.70
2019-02-14T22:47:44.124Z,6.60
2019-02-14T22:50:13.314Z,6.60
2019-02-14T22:52:41.782Z,6.70
2019-02-14T22:55:12.793Z,6.60
2019-02-14T22:57:41.257Z,6.60
2019-02-14T23:00:15.746Z,6.60
2019-02-14T23:02:44.630Z,6.70
2019-02-14T23:05:13.170Z,6.70
2019-02-14T23:07:41.610Z,6.70
2019-02-14T23:10:10.292Z,6.80
2019-02-14T23:12:38.751Z,6.70
2019-02-14T23:15:08.034Z,6.80
2019-02-14T23:17:36.498Z,6.70
2019-02-14T23:20:06.487Z,6.60
2019-02-14T23:22:34.988Z,6.70
2019-02-14T23:25:03.997Z,6.70
2019-02-14T23:27:32.529Z,6.70
2019-02-14T23:30:01.308Z,6.60
2019-02-14T23:32:29.752Z,6.60
2019-02-14T23:34:58.213Z,6.60
2019-02-14T23:37:26.670Z,6.60
2019-02-14T23:39:55.145Z,6.60
2019-02-14T23:42:23.649Z,6.50
2019-02-14T23:44:52.093Z,6.50
2019-02-14T23:47:20.533Z,6.40
2019-02-14T23:49:49.361Z,6.40
2019-02-14T23:52:18.143Z,6.40
2019-02-14T23:54:46.611Z,6.40
2019-02-14T23:57:15.055Z,6.40
2019-02-14T23:59:43.492Z,6.30
